sensor_id;sensor_type;location;lat;lon;timestamp;P1;durP1;ratioP1;P2;durP2;ratioP2
57667;SDS011;43499;52.366;12.912;2023-11-21T00:00:17;12.65;;;5.03;;
57667;SDS011;43499;52.366;12.912;2023-11-21T00:01:19;13.88;;;4.82;;
57667;SDS011;43499;52.366;12.912;2023-11-21T00:02:20;12.82;;;4.88;;
57667;SDS011;43499;52.366;12.912;2023-11-21T00:03:22;12.52;;;4.70;;
57667;SDS011;43499;52.366;12.912;2023-11-21T00:04:24;16.35;;;4.85;;
57667;SDS011;43499;52.366;12.912;2023-11-21T00:05:25;16.80;;;4.65;;
57667;SDS011;43499;52.366;12.912;2023-11-21T00:06:26;13.90;;;4.22;;
57667;SDS011;43499;52.366;12.912;2023-11-21T00:07:27;12.48;;;4.25;;
57667;SDS011;43499;52.366;12.912;2023-11-21T00:08:28;13.65;;;4.25;;
57667;SDS011;43499;52.366;12.912;2023-11-21T00:09:29;9.82;;;4.07;;
57667;SDS011;43499;52.366;12.912;2023-11-21T00:10:30;17.67;;;5.93;;
57667;SDS011;43499;52.366;12.912;2023-11-21T00:11:31;15.77;;;5.22;;
57667;SDS011;43499;52.366;12.912;2023-11-21T00:12:32;13.00;;;4.50;;
57667;SDS011;43499;52.366;12.912;2023-11-21T00:13:34;10.15;;;3.78;;
57667;SDS011;43499;52.366;12.912;2023-11-21T00:15:37;22.35;;;4.18;;
57667;SDS011;43499;52.366;12.912;2023-11-21T00:16:38;14.52;;;4.65;;
57667;SDS011;43499;52.366;12.912;2023-11-21T00:17:40;13.93;;;4.25;;
57667;SDS011;43499;52.366;12.912;2023-11-21T00:18:43;10.90;;;4.57;;
57667;SDS011;43499;52.366;12.912;2023-11-21T00:19:44;15.30;;;4.72;;
57667;SDS011;43499;52.366;12.912;2023-11-21T00:20:45;16.20;;;3.70;;
57667;SDS011;43499;52.366;12.912;2023-11-21T00:21:46;16.88;;;5.07;;
57667;SDS011;43499;52.366;12.912;2023-11-21T00:22:47;13.32;;;4.25;;
57667;SDS011;43499;52.366;12.912;2023-11-21T00:23:48;18.30;;;4.32;;
57667;SDS011;43499;52.366;12.912;2023-11-21T00:24:49;15.10;;;4.35;;
57667;SDS011;43499;52.366;12.912;2023-11-21T00:25:50;14.48;;;4.55;;
57667;SDS011;43499;52.366;12.912;2023-11-21T00:26:51;13.18;;;4.32;;
57667;SDS011;43499;52.366;12.912;2023-11-21T00:27:54;14.38;;;5.40;;
57667;SDS011;43499;52.366;12.912;2023-11-21T00:28:55;14.30;;;4.88;;
57667;SDS011;43499;52.366;12.912;2023-11-21T00:29:56;14.40;;;4.25;;
57667;SDS011;43499;52.366;12.912;2023-11-21T00:30:57;15.48;;;4.60;;
57667;SDS011;43499;52.366;12.912;2023-11-21T00:31:58;10.13;;;4.78;;
57667;SDS011;43499;52.366;12.912;2023-11-21T00:32:59;15.32;;;4.72;;
57667;SDS011;43499;52.366;12.912;2023-11-21T00:34:02;14.43;;;4.65;;
57667;SDS011;43499;52.366;12.912;2023-11-21T00:35:09;17.40;;;4.82;;
57667;SDS011;43499;52.366;12.912;2023-11-21T00:36:10;9.25;;;4.10;;
57667;SDS011;43499;52.366;12.912;2023-11-21T00:37:11;12.07;;;4.80;;
57667;SDS011;43499;52.366;12.912;2023-11-21T00:38:12;15.15;;;5.53;;
57667;SDS011;43499;52.366;12.912;2023-11-21T00:39:13;13.27;;;4.45;;
57667;SDS011;43499;52.366;12.912;2023-11-21T00:40:15;11.68;;;4.68;;
57667;SDS011;43499;52.366;12.912;2023-11-21T00:41:16;14.48;;;4.72;;
57667;SDS011;43499;52.366;12.912;2023-11-21T00:42:17;12.85;;;4.13;;
57667;SDS011;43499;52.366;12.912;2023-11-21T00:43:19;16.40;;;4.65;;
57667;SDS011;43499;52.366;12.912;2023-11-21T00:44:20;10.63;;;3.88;;
57667;SDS011;43499;52.366;12.912;2023-11-21T00:45:21;13.48;;;3.80;;
57667;SDS011;43499;52.366;12.912;2023-11-21T00:46:22;5.80;;;2.65;;
57667;SDS011;43499;52.366;12.912;2023-11-21T00:47:24;7.57;;;3.97;;
57667;SDS011;43499;52.366;12.912;2023-11-21T00:48:26;9.30;;;2.95;;
57667;SDS011;43499;52.366;12.912;2023-11-21T00:49:27;5.65;;;2.33;;
57667;SDS011;43499;52.366;12.912;2023-11-21T00:50:28;8.25;;;2.80;;
57667;SDS011;43499;52.366;12.912;2023-11-21T00:51:31;9.48;;;2.72;;
57667;SDS011;43499;52.366;12.912;2023-11-21T00:52:32;7.75;;;2.75;;
57667;SDS011;43499;52.366;12.912;2023-11-21T00:53:33;6.80;;;2.42;;
57667;SDS011;43499;52.366;12.912;2023-11-21T00:54:34;8.30;;;2.40;;
57667;SDS011;43499;52.366;12.912;2023-11-21T00:55:35;4.63;;;2.00;;
57667;SDS011;43499;52.366;12.912;2023-11-21T00:56:36;8.10;;;2.33;;
57667;SDS011;43499;52.366;12.912;2023-11-21T00:57:38;5.07;;;2.15;;
57667;SDS011;43499;52.366;12.912;2023-11-21T00:58:39;3.33;;;1.60;;
57667;SDS011;43499;52.366;12.912;2023-11-21T00:59:44;3.20;;;1.42;;
57667;SDS011;43499;52.366;12.912;2023-11-21T01:00:45;3.05;;;1.30;;
57667;SDS011;43499;52.366;12.912;2023-11-21T01:01:49;2.10;;;1.02;;
57667;SDS011;43499;52.366;12.912;2023-11-21T01:02:50;2.35;;;0.82;;
57667;SDS011;43499;52.366;12.912;2023-11-21T01:03:51;1.92;;;0.80;;
57667;SDS011;43499;52.366;12.912;2023-11-21T01:04:53;2.45;;;0.45;;
57667;SDS011;43499;52.366;12.912;2023-11-21T01:05:55;2.22;;;0.60;;
57667;SDS011;43499;52.366;12.912;2023-11-21T01:06:56;1.77;;;0.70;;
57667;SDS011;43499;52.366;12.912;2023-11-21T01:07:57;1.48;;;0.40;;
57667;SDS011;43499;52.366;12.912;2023-11-21T01:08:58;3.55;;;0.55;;
57667;SDS011;43499;52.366;12.912;2023-11-21T01:09:59;1.30;;;0.52;;
57667;SDS011;43499;52.366;12.912;2023-11-21T01:11:01;1.45;;;0.70;;
57667;SDS011;43499;52.366;12.912;2023-11-21T01:12:03;1.63;;;0.55;;
57667;SDS011;43499;52.366;12.912;2023-11-21T01:13:04;2.20;;;0.80;;
57667;SDS011;43499;52.366;12.912;2023-11-21T01:14:06;1.08;;;0.60;;
57667;SDS011;43499;52.366;12.912;2023-11-21T01:15:09;1.92;;;1.10;;
57667;SDS011;43499;52.366;12.912;2023-11-21T01:16:12;2.47;;;0.88;;
57667;SDS011;43499;52.366;12.912;2023-11-21T01:17:15;1.27;;;0.73;;
57667;SDS011;43499;52.366;12.912;2023-11-21T01:18:16;2.78;;;0.98;;
57667;SDS011;43499;52.366;12.912;2023-11-21T01:19:17;2.47;;;1.02;;
57667;SDS011;43499;52.366;12.912;2023-11-21T01:20:18;2.28;;;1.38;;
57667;SDS011;43499;52.366;12.912;2023-11-21T01:21:19;2.47;;;0.95;;
57667;SDS011;43499;52.366;12.912;2023-11-21T01:22:20;2.13;;;1.10;;
57667;SDS011;43499;52.366;12.912;2023-11-21T01:23:26;1.85;;;1.20;;
57667;SDS011;43499;52.366;12.912;2023-11-21T01:24:27;2.92;;;1.80;;
57667;SDS011;43499;52.366;12.912;2023-11-21T01:25:28;3.58;;;2.20;;
57667;SDS011;43499;52.366;12.912;2023-11-21T01:26:30;2.20;;;1.50;;
57667;SDS011;43499;52.366;12.912;2023-11-21T01:27:31;2.20;;;1.42;;
57667;SDS011;43499;52.366;12.912;2023-11-21T01:28:32;2.80;;;1.67;;
57667;SDS011;43499;52.366;12.912;2023-11-21T01:29:33;3.50;;;1.80;;
57667;SDS011;43499;52.366;12.912;2023-11-21T01:30:35;2.83;;;1.60;;
57667;SDS011;43499;52.366;12.912;2023-11-21T01:31:36;3.92;;;1.55;;
57667;SDS011;43499;52.366;12.912;2023-11-21T01:32:37;3.35;;;1.83;;
57667;SDS011;43499;52.366;12.912;2023-11-21T01:33:39;3.22;;;1.63;;
57667;SDS011;43499;52.366;12.912;2023-11-21T01:34:42;2.92;;;1.67;;
57667;SDS011;43499;52.366;12.912;2023-11-21T01:35:43;3.67;;;1.52;;
57667;SDS011;43499;52.366;12.912;2023-11-21T01:36:45;3.55;;;2.00;;
57667;SDS011;43499;52.366;12.912;2023-11-21T01:37:47;3.58;;;1.73;;
57667;SDS011;43499;52.366;12.912;2023-11-21T01:38:49;3.67;;;1.80;;
57667;SDS011;43499;52.366;12.912;2023-11-21T01:39:50;4.55;;;2.15;;
57667;SDS011;43499;52.366;12.912;2023-11-21T01:40:52;5.05;;;2.15;;
57667;SDS011;43499;52.366;12.912;2023-11-21T01:41:53;6.68;;;2.22;;
57667;SDS011;43499;52.366;12.912;2023-11-21T01:42:54;8.05;;;2.22;;
57667;SDS011;43499;52.366;12.912;2023-11-21T01:43:55;7.78;;;2.58;;
57667;SDS011;43499;52.366;12.912;2023-11-21T01:44:57;9.82;;;2.42;;
57667;SDS011;43499;52.366;12.912;2023-11-21T01:45:58;7.90;;;2.90;;
57667;SDS011;43499;52.366;12.912;2023-11-21T01:46:59;6.32;;;2.70;;
57667;SDS011;43499;52.366;12.912;2023-11-21T01:48:05;5.88;;;2.72;;
57667;SDS011;43499;52.366;12.912;2023-11-21T01:49:07;3.92;;;2.75;;
57667;SDS011;43499;52.366;12.912;2023-11-21T01:50:13;5.32;;;3.53;;
57667;SDS011;43499;52.366;12.912;2023-11-21T01:51:16;5.13;;;2.30;;
57667;SDS011;43499;52.366;12.912;2023-11-21T01:52:17;5.13;;;2.78;;
57667;SDS011;43499;52.366;12.912;2023-11-21T01:53:18;6.20;;;2.47;;
57667;SDS011;43499;52.366;12.912;2023-11-21T01:54:21;4.32;;;2.03;;
57667;SDS011;43499;52.366;12.912;2023-11-21T01:55:22;4.70;;;2.40;;
57667;SDS011;43499;52.366;12.912;2023-11-21T01:56:24;4.72;;;2.13;;
57667;SDS011;43499;52.366;12.912;2023-11-21T01:57:26;5.35;;;2.85;;
57667;SDS011;43499;52.366;12.912;2023-11-21T01:58:28;5.60;;;2.67;;
57667;SDS011;43499;52.366;12.912;2023-11-21T01:59:36;4.70;;;2.38;;
57667;SDS011;43499;52.366;12.912;2023-11-21T02:00:38;4.32;;;2.50;;
57667;SDS011;43499;52.366;12.912;2023-11-21T02:01:40;5.25;;;1.83;;
57667;SDS011;43499;52.366;12.912;2023-11-21T02:02:43;5.80;;;3.30;;
57667;SDS011;43499;52.366;12.912;2023-11-21T02:03:44;4.93;;;1.98;;
57667;SDS011;43499;52.366;12.912;2023-11-21T02:04:45;5.22;;;2.30;;
57667;SDS011;43499;52.366;12.912;2023-11-21T02:05:47;6.45;;;2.15;;
57667;SDS011;43499;52.366;12.912;2023-11-21T02:06:48;4.30;;;2.30;;
57667;SDS011;43499;52.366;12.912;2023-11-21T02:07:51;5.03;;;2.08;;
57667;SDS011;43499;52.366;12.912;2023-11-21T02:08:53;5.15;;;2.53;;
57667;SDS011;43499;52.366;12.912;2023-11-21T02:09:54;3.22;;;2.13;;
57667;SDS011;43499;52.366;12.912;2023-11-21T02:10:55;3.97;;;2.55;;
57667;SDS011;43499;52.366;12.912;2023-11-21T02:11:56;3.42;;;2.13;;
57667;SDS011;43499;52.366;12.912;2023-11-21T02:12:59;3.88;;;2.30;;
57667;SDS011;43499;52.366;12.912;2023-11-21T02:14:03;5.57;;;2.20;;
57667;SDS011;43499;52.366;12.912;2023-11-21T02:15:04;5.20;;;2.42;;
57667;SDS011;43499;52.366;12.912;2023-11-21T02:16:10;4.60;;;2.33;;
57667;SDS011;43499;52.366;12.912;2023-11-21T02:17:13;4.07;;;2.30;;
57667;SDS011;43499;52.366;12.912;2023-11-21T02:18:15;5.10;;;2.45;;
57667;SDS011;43499;52.366;12.912;2023-11-21T02:19:17;4.90;;;2.90;;
57667;SDS011;43499;52.366;12.912;2023-11-21T02:20:30;10.93;;;3.10;;
57667;SDS011;43499;52.366;12.912;2023-11-21T02:21:32;6.10;;;2.70;;
57667;SDS011;43499;52.366;12.912;2023-11-21T02:22:33;5.28;;;2.58;;
57667;SDS011;43499;52.366;12.912;2023-11-21T02:23:41;4.93;;;3.30;;
57667;SDS011;43499;52.366;12.912;2023-11-21T02:24:45;7.20;;;2.90;;
57667;SDS011;43499;52.366;12.912;2023-11-21T02:25:47;5.93;;;3.47;;
57667;SDS011;43499;52.366;12.912;2023-11-21T02:26:50;6.10;;;2.80;;
57667;SDS011;43499;52.366;12.912;2023-11-21T02:27:52;6.05;;;3.42;;
57667;SDS011;43499;52.366;12.912;2023-11-21T02:28:55;6.28;;;3.55;;
57667;SDS011;43499;52.366;12.912;2023-11-21T02:29:56;7.43;;;3.22;;
57667;SDS011;43499;52.366;12.912;2023-11-21T02:30:57;6.85;;;3.35;;
57667;SDS011;43499;52.366;12.912;2023-11-21T02:31:59;9.43;;;3.50;;
57667;SDS011;43499;52.366;12.912;2023-11-21T02:33:01;8.73;;;3.65;;
57667;SDS011;43499;52.366;12.912;2023-11-21T02:34:02;6.72;;;3.92;;
57667;SDS011;43499;52.366;12.912;2023-11-21T02:35:04;6.45;;;3.58;;
57667;SDS011;43499;52.366;12.912;2023-11-21T02:36:08;7.63;;;3.92;;
57667;SDS011;43499;52.366;12.912;2023-11-21T02:37:10;5.57;;;2.70;;
57667;SDS011;43499;52.366;12.912;2023-11-21T02:38:11;6.70;;;3.90;;
57667;SDS011;43499;52.366;12.912;2023-11-21T02:39:12;8.13;;;4.18;;
57667;SDS011;43499;52.366;12.912;2023-11-21T02:40:14;6.25;;;4.20;;
57667;SDS011;43499;52.366;12.912;2023-11-21T02:41:18;7.35;;;3.50;;
57667;SDS011;43499;52.366;12.912;2023-11-21T02:42:19;8.68;;;4.22;;
57667;SDS011;43499;52.366;12.912;2023-11-21T02:43:20;9.82;;;4.22;;
57667;SDS011;43499;52.366;12.912;2023-11-21T02:44:21;7.35;;;3.80;;
57667;SDS011;43499;52.366;12.912;2023-11-21T02:45:22;7.30;;;4.25;;
57667;SDS011;43499;52.366;12.912;2023-11-21T02:46:25;8.00;;;3.70;;
57667;SDS011;43499;52.366;12.912;2023-11-21T02:47:27;8.65;;;5.03;;
57667;SDS011;43499;52.366;12.912;2023-11-21T02:48:28;9.45;;;4.30;;
57667;SDS011;43499;52.366;12.912;2023-11-21T02:49:29;10.95;;;4.78;;
57667;SDS011;43499;52.366;12.912;2023-11-21T02:50:30;6.32;;;4.32;;
57667;SDS011;43499;52.366;12.912;2023-11-21T02:51:31;7.95;;;4.75;;
57667;SDS011;43499;52.366;12.912;2023-11-21T02:52:32;11.20;;;5.07;;
57667;SDS011;43499;52.366;12.912;2023-11-21T02:53:34;9.52;;;4.80;;
57667;SDS011;43499;52.366;12.912;2023-11-21T02:54:36;8.02;;;4.75;;
57667;SDS011;43499;52.366;12.912;2023-11-21T02:55:37;11.02;;;4.85;;
57667;SDS011;43499;52.366;12.912;2023-11-21T02:56:38;8.77;;;5.15;;
57667;SDS011;43499;52.366;12.912;2023-11-21T02:57:40;9.15;;;4.75;;
57667;SDS011;43499;52.366;12.912;2023-11-21T02:58:42;12.30;;;4.47;;
57667;SDS011;43499;52.366;12.912;2023-11-21T02:59:44;14.40;;;5.32;;
57667;SDS011;43499;52.366;12.912;2023-11-21T03:00:47;9.23;;;4.38;;
57667;SDS011;43499;52.366;12.912;2023-11-21T03:01:48;8.27;;;4.88;;
57667;SDS011;43499;52.366;12.912;2023-11-21T03:02:50;7.68;;;4.85;;
57667;SDS011;43499;52.366;12.912;2023-11-21T03:03:51;9.38;;;4.13;;
57667;SDS011;43499;52.366;12.912;2023-11-21T03:05:54;8.18;;;3.95;;
57667;SDS011;43499;52.366;12.912;2023-11-21T03:06:55;9.43;;;3.40;;
57667;SDS011;43499;52.366;12.912;2023-11-21T03:07:56;8.68;;;4.18;;
57667;SDS011;43499;52.366;12.912;2023-11-21T03:08:57;11.35;;;3.42;;
57667;SDS011;43499;52.366;12.912;2023-11-21T03:09:58;7.63;;;4.07;;
57667;SDS011;43499;52.366;12.912;2023-11-21T03:10:59;8.10;;;4.05;;
57667;SDS011;43499;52.366;12.912;2023-11-21T03:12:01;6.20;;;3.40;;
57667;SDS011;43499;52.366;12.912;2023-11-21T03:13:02;6.90;;;3.72;;
57667;SDS011;43499;52.366;12.912;2023-11-21T03:14:03;7.57;;;3.03;;
57667;SDS011;43499;52.366;12.912;2023-11-21T03:15:05;8.55;;;3.80;;
57667;SDS011;43499;52.366;12.912;2023-11-21T03:16:10;6.15;;;2.97;;
57667;SDS011;43499;52.366;12.912;2023-11-21T03:17:11;4.70;;;2.90;;
57667;SDS011;43499;52.366;12.912;2023-11-21T03:18:12;7.05;;;3.85;;
57667;SDS011;43499;52.366;12.912;2023-11-21T03:19:14;6.72;;;3.28;;
57667;SDS011;43499;52.366;12.912;2023-11-21T03:20:15;6.90;;;3.80;;
57667;SDS011;43499;52.366;12.912;2023-11-21T03:21:17;10.48;;;3.80;;
57667;SDS011;43499;52.366;12.912;2023-11-21T03:22:18;7.20;;;3.80;;
57667;SDS011;43499;52.366;12.912;2023-11-21T03:23:20;7.18;;;3.63;;
57667;SDS011;43499;52.366;12.912;2023-11-21T03:24:21;6.28;;;3.80;;
57667;SDS011;43499;52.366;12.912;2023-11-21T03:25:23;10.05;;;3.83;;
57667;SDS011;43499;52.366;12.912;2023-11-21T03:26:24;6.00;;;4.03;;
57667;SDS011;43499;52.366;12.912;2023-11-21T03:27:25;9.98;;;3.97;;
57667;SDS011;43499;52.366;12.912;2023-11-21T03:28:27;7.50;;;3.78;;
57667;SDS011;43499;52.366;12.912;2023-11-21T03:29:28;6.65;;;3.95;;
57667;SDS011;43499;52.366;12.912;2023-11-21T03:30:29;8.07;;;5.03;;
57667;SDS011;43499;52.366;12.912;2023-11-21T03:31:31;6.88;;;3.92;;
57667;SDS011;43499;52.366;12.912;2023-11-21T03:32:33;8.70;;;6.05;;
57667;SDS011;43499;52.366;12.912;2023-11-21T03:33:34;8.93;;;4.63;;
57667;SDS011;43499;52.366;12.912;2023-11-21T03:35:53;7.88;;;4.15;;
57667;SDS011;43499;52.366;12.912;2023-11-21T03:36:54;7.20;;;4.05;;
57667;SDS011;43499;52.366;12.912;2023-11-21T03:37:55;10.85;;;4.22;;
57667;SDS011;43499;52.366;12.912;2023-11-21T03:38:57;8.35;;;4.28;;
57667;SDS011;43499;52.366;12.912;2023-11-21T03:39:58;6.13;;;4.15;;
57667;SDS011;43499;52.366;12.912;2023-11-21T03:40:59;8.65;;;4.18;;
57667;SDS011;43499;52.366;12.912;2023-11-21T03:42:03;7.93;;;4.32;;
57667;SDS011;43499;52.366;12.912;2023-11-21T03:43:04;7.80;;;4.22;;
57667;SDS011;43499;52.366;12.912;2023-11-21T03:44:05;8.00;;;4.40;;
57667;SDS011;43499;52.366;12.912;2023-11-21T03:45:07;9.35;;;4.00;;
57667;SDS011;43499;52.366;12.912;2023-11-21T03:46:08;8.90;;;5.00;;
57667;SDS011;43499;52.366;12.912;2023-11-21T03:47:11;8.63;;;4.32;;
57667;SDS011;43499;52.366;12.912;2023-11-21T03:48:12;9.73;;;4.28;;
57667;SDS011;43499;52.366;12.912;2023-11-21T03:50:16;7.60;;;4.00;;
57667;SDS011;43499;52.366;12.912;2023-11-21T03:51:19;8.95;;;3.92;;
57667;SDS011;43499;52.366;12.912;2023-11-21T03:52:20;6.68;;;3.75;;
57667;SDS011;43499;52.366;12.912;2023-11-21T03:53:21;8.20;;;4.68;;
57667;SDS011;43499;52.366;12.912;2023-11-21T03:54:22;7.20;;;4.38;;
57667;SDS011;43499;52.366;12.912;2023-11-21T03:55:23;7.15;;;4.13;;
57667;SDS011;43499;52.366;12.912;2023-11-21T03:56:25;10.00;;;4.78;;
57667;SDS011;43499;52.366;12.912;2023-11-21T03:57:26;8.55;;;4.85;;
57667;SDS011;43499;52.366;12.912;2023-11-21T03:58:28;6.97;;;4.53;;
57667;SDS011;43499;52.366;12.912;2023-11-21T03:59:29;10.05;;;4.15;;
57667;SDS011;43499;52.366;12.912;2023-11-21T04:00:30;8.95;;;5.00;;
57667;SDS011;43499;52.366;12.912;2023-11-21T04:01:31;8.02;;;4.85;;
57667;SDS011;43499;52.366;12.912;2023-11-21T04:02:33;10.55;;;4.70;;
57667;SDS011;43499;52.366;12.912;2023-11-21T04:03:34;9.40;;;4.65;;
57667;SDS011;43499;52.366;12.912;2023-11-21T04:04:35;9.77;;;4.40;;
57667;SDS011;43499;52.366;12.912;2023-11-21T04:05:36;9.50;;;4.75;;
57667;SDS011;43499;52.366;12.912;2023-11-21T04:06:38;10.40;;;4.45;;
57667;SDS011;43499;52.366;12.912;2023-11-21T04:07:39;10.52;;;5.07;;
57667;SDS011;43499;52.366;12.912;2023-11-21T04:08:40;8.65;;;4.03;;
57667;SDS011;43499;52.366;12.912;2023-11-21T04:09:41;10.38;;;4.95;;
57667;SDS011;43499;52.366;12.912;2023-11-21T04:10:42;9.38;;;5.00;;
57667;SDS011;43499;52.366;12.912;2023-11-21T04:11:43;9.57;;;4.75;;
57667;SDS011;43499;52.366;12.912;2023-11-21T04:12:46;9.07;;;4.32;;
57667;SDS011;43499;52.366;12.912;2023-11-21T04:13:47;9.48;;;5.85;;
57667;SDS011;43499;52.366;12.912;2023-11-21T04:14:48;9.77;;;4.22;;
57667;SDS011;43499;52.366;12.912;2023-11-21T04:15:50;9.85;;;4.38;;
57667;SDS011;43499;52.366;12.912;2023-11-21T04:16:51;9.45;;;5.82;;
57667;SDS011;43499;52.366;12.912;2023-11-21T04:17:52;8.32;;;4.47;;
57667;SDS011;43499;52.366;12.912;2023-11-21T04:18:53;9.90;;;5.20;;
57667;SDS011;43499;52.366;12.912;2023-11-21T04:19:54;9.00;;;4.93;;
57667;SDS011;43499;52.366;12.912;2023-11-21T04:20:55;10.50;;;5.15;;
57667;SDS011;43499;52.366;12.912;2023-11-21T04:21:56;9.25;;;5.07;;
57667;SDS011;43499;52.366;12.912;2023-11-21T04:22:57;9.82;;;5.07;;
57667;SDS011;43499;52.366;12.912;2023-11-21T04:23:58;8.25;;;4.68;;
57667;SDS011;43499;52.366;12.912;2023-11-21T04:24:59;10.15;;;5.18;;
57667;SDS011;43499;52.366;12.912;2023-11-21T04:26:00;8.63;;;4.43;;
57667;SDS011;43499;52.366;12.912;2023-11-21T04:27:03;8.48;;;4.88;;
57667;SDS011;43499;52.366;12.912;2023-11-21T04:28:04;10.68;;;5.03;;
57667;SDS011;43499;52.366;12.912;2023-11-21T04:29:05;11.63;;;5.63;;
57667;SDS011;43499;52.366;12.912;2023-11-21T04:30:06;9.35;;;4.60;;
57667;SDS011;43499;52.366;12.912;2023-11-21T04:31:07;9.60;;;4.45;;
57667;SDS011;43499;52.366;12.912;2023-11-21T04:32:09;12.30;;;5.53;;
57667;SDS011;43499;52.366;12.912;2023-11-21T04:33:10;8.02;;;5.22;;
57667;SDS011;43499;52.366;12.912;2023-11-21T04:34:11;7.07;;;4.40;;
57667;SDS011;43499;52.366;12.912;2023-11-21T04:35:12;7.32;;;4.35;;
57667;SDS011;43499;52.366;12.912;2023-11-21T04:36:13;11.27;;;5.68;;
57667;SDS011;43499;52.366;12.912;2023-11-21T04:37:14;9.85;;;5.25;;
57667;SDS011;43499;52.366;12.912;2023-11-21T04:38:15;13.38;;;5.68;;
57667;SDS011;43499;52.366;12.912;2023-11-21T04:39:16;11.98;;;5.30;;
57667;SDS011;43499;52.366;12.912;2023-11-21T04:40:18;10.25;;;5.63;;
57667;SDS011;43499;52.366;12.912;2023-11-21T04:41:21;7.93;;;5.05;;
57667;SDS011;43499;52.366;12.912;2023-11-21T04:42:22;10.60;;;5.80;;
57667;SDS011;43499;52.366;12.912;2023-11-21T04:43:23;13.75;;;5.85;;
57667;SDS011;43499;52.366;12.912;2023-11-21T04:44:24;10.05;;;5.18;;
57667;SDS011;43499;52.366;12.912;2023-11-21T04:45:25;9.80;;;5.28;;
57667;SDS011;43499;52.366;12.912;2023-11-21T04:46:26;10.63;;;5.85;;
57667;SDS011;43499;52.366;12.912;2023-11-21T04:47:27;8.93;;;5.20;;
57667;SDS011;43499;52.366;12.912;2023-11-21T04:48:29;11.32;;;6.85;;
57667;SDS011;43499;52.366;12.912;2023-11-21T04:49:30;10.63;;;5.30;;
57667;SDS011;43499;52.366;12.912;2023-11-21T04:50:31;16.92;;;6.60;;
57667;SDS011;43499;52.366;12.912;2023-11-21T04:51:32;11.30;;;5.78;;
57667;SDS011;43499;52.366;12.912;2023-11-21T04:52:33;9.25;;;4.85;;
57667;SDS011;43499;52.366;12.912;2023-11-21T04:53:35;11.30;;;6.15;;
57667;SDS011;43499;52.366;12.912;2023-11-21T04:54:36;13.13;;;6.55;;
57667;SDS011;43499;52.366;12.912;2023-11-21T04:55:37;10.18;;;5.50;;
57667;SDS011;43499;52.366;12.912;2023-11-21T04:56:39;12.07;;;6.38;;
57667;SDS011;43499;52.366;12.912;2023-11-21T04:57:40;17.13;;;7.65;;
57667;SDS011;43499;52.366;12.912;2023-11-21T04:58:42;11.32;;;5.80;;
57667;SDS011;43499;52.366;12.912;2023-11-21T04:59:43;11.57;;;6.18;;
57667;SDS011;43499;52.366;12.912;2023-11-21T05:00:44;11.48;;;5.93;;
57667;SDS011;43499;52.366;12.912;2023-11-21T05:01:45;13.65;;;6.22;;
57667;SDS011;43499;52.366;12.912;2023-11-21T05:02:46;13.52;;;6.13;;
57667;SDS011;43499;52.366;12.912;2023-11-21T05:03:48;13.10;;;6.72;;
57667;SDS011;43499;52.366;12.912;2023-11-21T05:04:49;12.38;;;6.00;;
57667;SDS011;43499;52.366;12.912;2023-11-21T05:05:50;15.07;;;6.30;;
57667;SDS011;43499;52.366;12.912;2023-11-21T05:06:51;10.98;;;5.60;;
57667;SDS011;43499;52.366;12.912;2023-11-21T05:07:52;16.15;;;6.32;;
57667;SDS011;43499;52.366;12.912;2023-11-21T05:08:54;12.57;;;6.57;;
57667;SDS011;43499;52.366;12.912;2023-11-21T05:09:55;12.73;;;6.85;;
57667;SDS011;43499;52.366;12.912;2023-11-21T05:10:56;11.20;;;5.90;;
57667;SDS011;43499;52.366;12.912;2023-11-21T05:11:58;12.85;;;6.03;;
57667;SDS011;43499;52.366;12.912;2023-11-21T05:12:59;11.98;;;5.53;;
57667;SDS011;43499;52.366;12.912;2023-11-21T05:14:00;10.55;;;5.65;;
57667;SDS011;43499;52.366;12.912;2023-11-21T05:15:02;11.60;;;6.05;;
57667;SDS011;43499;52.366;12.912;2023-11-21T05:16:08;14.23;;;6.32;;
57667;SDS011;43499;52.366;12.912;2023-11-21T05:17:09;13.60;;;7.50;;
57667;SDS011;43499;52.366;12.912;2023-11-21T05:18:10;17.77;;;7.30;;
57667;SDS011;43499;52.366;12.912;2023-11-21T05:20:14;10.98;;;6.13;;
57667;SDS011;43499;52.366;12.912;2023-11-21T05:21:18;11.32;;;6.00;;
57667;SDS011;43499;52.366;12.912;2023-11-21T05:22:21;14.02;;;6.22;;
57667;SDS011;43499;52.366;12.912;2023-11-21T05:23:23;17.30;;;7.20;;
57667;SDS011;43499;52.366;12.912;2023-11-21T05:24:24;12.98;;;6.75;;
57667;SDS011;43499;52.366;12.912;2023-11-21T05:25:25;13.63;;;7.30;;
57667;SDS011;43499;52.366;12.912;2023-11-21T05:26:26;12.32;;;6.35;;
57667;SDS011;43499;52.366;12.912;2023-11-21T05:27:27;12.00;;;6.22;;
57667;SDS011;43499;52.366;12.912;2023-11-21T05:28:28;13.65;;;6.78;;
57667;SDS011;43499;52.366;12.912;2023-11-21T05:29:29;12.52;;;6.20;;
57667;SDS011;43499;52.366;12.912;2023-11-21T05:30:30;14.95;;;7.68;;
57667;SDS011;43499;52.366;12.912;2023-11-21T05:31:31;14.98;;;7.00;;
57667;SDS011;43499;52.366;12.912;2023-11-21T05:32:32;14.45;;;8.13;;
57667;SDS011;43499;52.366;12.912;2023-11-21T05:33:34;13.30;;;6.85;;
57667;SDS011;43499;52.366;12.912;2023-11-21T05:34:35;12.60;;;6.72;;
57667;SDS011;43499;52.366;12.912;2023-11-21T05:35:36;13.63;;;6.25;;
57667;SDS011;43499;52.366;12.912;2023-11-21T05:36:37;12.02;;;7.47;;
57667;SDS011;43499;52.366;12.912;2023-11-21T05:37:38;17.35;;;6.65;;
57667;SDS011;43499;52.366;12.912;2023-11-21T05:38:40;13.68;;;7.20;;
57667;SDS011;43499;52.366;12.912;2023-11-21T05:39:42;15.82;;;6.53;;
57667;SDS011;43499;52.366;12.912;2023-11-21T05:40:43;13.45;;;6.65;;
57667;SDS011;43499;52.366;12.912;2023-11-21T05:41:44;12.77;;;7.03;;
57667;SDS011;43499;52.366;12.912;2023-11-21T05:42:46;15.32;;;7.35;;
57667;SDS011;43499;52.366;12.912;2023-11-21T05:43:47;14.55;;;6.57;;
57667;SDS011;43499;52.366;12.912;2023-11-21T05:44:48;15.88;;;7.03;;
57667;SDS011;43499;52.366;12.912;2023-11-21T05:45:49;14.55;;;6.68;;
57667;SDS011;43499;52.366;12.912;2023-11-21T05:46:51;17.50;;;6.35;;
57667;SDS011;43499;52.366;12.912;2023-11-21T05:47:52;15.75;;;6.35;;
57667;SDS011;43499;52.366;12.912;2023-11-21T05:48:53;10.15;;;5.40;;
57667;SDS011;43499;52.366;12.912;2023-11-21T05:49:54;12.85;;;6.40;;
57667;SDS011;43499;52.366;12.912;2023-11-21T05:50:55;11.77;;;5.72;;
57667;SDS011;43499;52.366;12.912;2023-11-21T05:51:56;13.68;;;6.38;;
57667;SDS011;43499;52.366;12.912;2023-11-21T05:52:57;13.98;;;6.03;;
57667;SDS011;43499;52.366;12.912;2023-11-21T05:54:00;12.02;;;6.22;;
57667;SDS011;43499;52.366;12.912;2023-11-21T05:55:01;10.00;;;5.78;;
57667;SDS011;43499;52.366;12.912;2023-11-21T05:56:02;12.82;;;6.18;;
57667;SDS011;43499;52.366;12.912;2023-11-21T05:57:04;14.13;;;5.68;;
57667;SDS011;43499;52.366;12.912;2023-11-21T05:58:05;14.45;;;5.63;;
57667;SDS011;43499;52.366;12.912;2023-11-21T05:59:07;12.40;;;6.43;;
57667;SDS011;43499;52.366;12.912;2023-11-21T06:00:09;14.18;;;7.25;;
57667;SDS011;43499;52.366;12.912;2023-11-21T06:01:16;13.85;;;6.53;;
57667;SDS011;43499;52.366;12.912;2023-11-21T06:02:17;13.13;;;6.38;;
57667;SDS011;43499;52.366;12.912;2023-11-21T06:04:20;11.90;;;5.15;;
57667;SDS011;43499;52.366;12.912;2023-11-21T06:05:25;11.50;;;5.65;;
57667;SDS011;43499;52.366;12.912;2023-11-21T06:06:26;12.80;;;5.07;;
57667;SDS011;43499;52.366;12.912;2023-11-21T06:07:28;10.82;;;5.43;;
57667;SDS011;43499;52.366;12.912;2023-11-21T06:08:30;9.40;;;5.63;;
57667;SDS011;43499;52.366;12.912;2023-11-21T06:10:32;9.88;;;5.13;;